Time;durP1;ratioP1;P1;durP2;ratioP2;P2;SDS_P1;SDS_P2;PMS_P1;PMS_P2;Temp;Humidity;BMP_temperature;BMP_pressure;BME280_temperature;BME280_humidity;BME280_pressure;Samples;Min_cycle;Max_cycle;Signal;HPM_P1;HPM_P2
2023/04/18 00:00:12;;;;;;;2.70;1.70;;;5.30;99.90;;;;;;5071490;28;20423;-71
2023/04/18 00:02:38;;;;;;;1.25;1.15;;;5.30;99.90;;;;;;5057138;28;20465;-71
2023/04/18 00:05:07;;;;;;;2.10;1.20;;;5.40;99.90;;;;;;5069740;28;20518;-70
2023/04/18 00:07:36;;;;;;;1.75;1.08;;;5.40;99.90;;;;;;5070465;28;20453;-70
2023/04/18 00:10:04;;;;;;;1.00;1.00;;;5.40;99.90;;;;;;5059434;28;20431;-70
2023/04/18 00:12:33;;;;;;;1.10;1.00;;;5.50;99.90;;;;;;5069841;28;20510;-70
2023/04/18 00:15:01;;;;;;;7.72;1.27;;;5.50;99.90;;;;;;5052830;28;20433;-70
2023/04/18 00:17:29;;;;;;;2.00;1.58;;;5.60;99.90;;;;;;5059412;28;20794;-70
2023/04/18 00:20:01;;;;;;;1.15;1.08;;;5.70;99.90;;;;;;5070025;28;20423;-70
2023/04/18 00:22:27;;;;;;;1.70;1.30;;;5.90;99.90;;;;;;5072084;28;20432;-70
2023/04/18 00:24:54;;;;;;;1.20;0.95;;;5.90;99.90;;;;;;5071412;28;20975;-70
2023/04/18 00:27:21;;;;;;;0.90;0.90;;;6.00;99.90;;;;;;5071878;28;20442;-70
2023/04/18 00:29:50;;;;;;;1.27;1.17;;;6.00;99.90;;;;;;5069731;28;20912;-70
2023/04/18 00:32:18;;;;;;;1.23;1.13;;;6.00;99.90;;;;;;5068433;28;20906;-70
2023/04/18 00:34:45;;;;;;;1.58;1.48;;;6.10;99.90;;;;;;5071365;28;20428;-70
2023/04/18 00:37:12;;;;;;;1.17;1.17;;;6.20;99.90;;;;;;5052171;28;21179;-70
2023/04/18 00:39:38;;;;;;;2.10;1.90;;;6.30;99.90;;;;;;5064674;28;20430;-70
2023/04/18 00:42:05;;;;;;;1.40;1.30;;;6.40;99.90;;;;;;5072026;28;20430;-71
2023/04/18 00:44:32;;;;;;;1.30;1.20;;;6.40;99.90;;;;;;5070884;28;20427;-70
2023/04/18 00:46:59;;;;;;;1.88;1.30;;;6.50;99.90;;;;;;5071936;28;20427;-70
2023/04/18 00:49:26;;;;;;;1.13;1.02;;;6.50;99.90;;;;;;5072428;28;20827;-71
2023/04/18 00:51:55;;;;;;;2.47;1.40;;;6.60;99.90;;;;;;5050877;28;20421;-71
2023/04/18 00:54:26;;;;;;;3.95;1.45;;;6.60;99.90;;;;;;5054013;28;20458;-70
2023/04/18 00:56:55;;;;;;;1.05;1.05;;;6.70;99.90;;;;;;5055682;28;20464;-70
2023/04/18 00:59:22;;;;;;;1.98;1.50;;;6.70;99.90;;;;;;5050479;28;20440;-70
2023/04/18 01:01:49;;;;;;;1.30;1.20;;;6.70;99.90;;;;;;5063360;28;20506;-71
2023/04/18 01:04:16;;;;;;;1.23;0.95;;;6.80;99.90;;;;;;5071023;28;20519;-70
2023/04/18 01:06:44;;;;;;;1.27;1.27;;;6.80;99.90;;;;;;5071077;28;20968;-70
2023/04/18 01:09:12;;;;;;;1.60;1.50;;;6.80;99.90;;;;;;5052342;28;20425;-70
2023/04/18 01:11:39;;;;;;;1.77;1.17;;;6.80;99.90;;;;;;5064055;28;20510;-70
2023/04/18 01:14:07;;;;;;;1.02;1.02;;;6.80;99.90;;;;;;5064496;28;20440;-70
2023/04/18 01:16:35;;;;;;;1.13;1.13;;;6.80;99.90;;;;;;5053232;28;20440;-70
2023/04/18 01:19:03;;;;;;;1.40;1.30;;;6.90;99.90;;;;;;5071219;28;20862;-71
2023/04/18 01:21:36;;;;;;;2.30;1.50;;;6.90;99.90;;;;;;5068058;28;20902;-70
2023/04/18 01:24:07;;;;;;;1.10;1.08;;;6.80;99.90;;;;;;5053600;28;20435;-70
2023/04/18 01:26:34;;;;;;;3.17;1.92;;;6.70;99.90;;;;;;5062946;28;20461;-70
2023/04/18 01:29:01;;;;;;;2.70;1.88;;;6.70;99.90;;;;;;5070661;28;20430;-70
2023/04/18 01:31:28;;;;;;;2.30;2.10;;;6.70;99.90;;;;;;5068551;28;20544;-70
2023/04/18 01:33:56;;;;;;;3.20;2.10;;;6.60;99.90;;;;;;5066669;28;20438;-70
2023/04/18 01:36:26;;;;;;;1.88;1.73;;;6.60;99.90;;;;;;5050684;28;20465;-70
2023/04/18 01:38:53;;;;;;;2.03;1.65;;;6.50;99.90;;;;;;5067461;28;20425;-70
2023/04/18 01:41:20;;;;;;;3.97;2.20;;;6.50;99.90;;;;;;5056434;28;20435;-70
2023/04/18 01:43:46;;;;;;;1.20;1.00;;;6.40;99.90;;;;;;5069717;28;20518;-70
2023/04/18 01:46:13;;;;;;;2.95;1.40;;;6.20;99.90;;;;;;5061532;28;20425;-71
2023/04/18 01:48:40;;;;;;;1.77;1.67;;;6.00;99.90;;;;;;5071842;28;20514;-70
2023/04/18 01:51:07;;;;;;;1.73;1.10;;;5.90;99.90;;;;;;5063586;28;20985;-71
2023/04/18 01:53:34;;;;;;;2.40;1.58;;;5.80;99.90;;;;;;5067440;28;20430;-70
2023/04/18 01:56:00;;;;;;;5.53;1.95;;;5.60;99.90;;;;;;5063671;28;20456;-71
2023/04/18 01:58:27;;;;;;;2.60;1.50;;;5.40;99.90;;;;;;5067804;28;20438;-70
2023/04/18 02:00:57;;;;;;;3.75;1.90;;;5.40;99.90;;;;;;5070516;28;20428;-71
2023/04/18 02:03:24;;;;;;;1.20;1.20;;;5.30;99.90;;;;;;5068947;28;20439;-71
2023/04/18 02:05:52;;;;;;;1.30;1.17;;;5.10;99.90;;;;;;5069681;28;20498;-70
2023/04/18 02:08:18;;;;;;;3.45;1.42;;;5.10;99.90;;;;;;5070036;28;20510;-71
2023/04/18 02:10:48;;;;;;;1.50;1.40;;;5.00;99.90;;;;;;5065251;28;20427;-71
2023/04/18 02:13:15;;;;;;;1.52;1.23;;;4.90;99.90;;;;;;5064713;28;20454;-70
2023/04/18 02:15:44;;;;;;;1.60;1.50;;;4.90;99.90;;;;;;5068556;28;20411;-71
2023/04/18 02:18:11;;;;;;;2.05;1.77;;;4.90;99.90;;;;;;5058079;28;20507;-70
2023/04/18 02:20:38;;;;;;;2.05;1.33;;;4.90;99.90;;;;;;5050110;28;20935;-70
2023/04/18 02:23:05;;;;;;;1.65;1.50;;;4.90;99.90;;;;;;5067436;28;20481;-70
2023/04/18 02:25:32;;;;;;;4.18;1.52;;;4.90;99.90;;;;;;5069278;28;20442;-71
2023/04/18 02:27:59;;;;;;;1.52;1.42;;;4.90;99.90;;;;;;5067585;28;20451;-71
2023/04/18 02:30:29;;;;;;;1.20;1.10;;;4.90;99.90;;;;;;5068314;28;20933;-71
2023/04/18 02:32:58;;;;;;;1.40;1.30;;;4.80;99.90;;;;;;5069751;28;20430;-70
2023/04/18 02:35:26;;;;;;;2.75;1.33;;;4.70;99.90;;;;;;5068921;28;20431;-70
2023/04/18 02:37:52;;;;;;;1.98;1.65;;;4.70;99.90;;;;;;5069689;28;20423;-71
2023/04/18 02:40:19;;;;;;;2.22;1.63;;;4.60;99.90;;;;;;5064424;28;20434;-70
2023/04/18 02:42:46;;;;;;;1.77;1.55;;;4.50;99.90;;;;;;5069601;28;20510;-70
2023/04/18 02:45:13;;;;;;;2.15;1.48;;;4.50;99.90;;;;;;5064681;28;20965;-70
2023/04/18 02:47:40;;;;;;;1.13;0.88;;;4.40;99.90;;;;;;5070127;28;20438;-71
2023/04/18 02:50:21;;;;;;;2.67;1.40;;;4.30;99.90;;;;;;5069705;28;20427;-70
2023/04/18 02:52:48;;;;;;;2.05;1.42;;;4.40;99.90;;;;;;5064489;28;20431;-71
2023/04/18 02:55:15;;;;;;;1.15;1.15;;;4.30;99.90;;;;;;5062322;28;20427;-70
2023/04/18 02:57:45;;;;;;;4.75;1.52;;;4.20;99.90;;;;;;5069431;28;20477;-70
2023/04/18 03:00:13;;;;;;;1.25;1.15;;;4.20;99.90;;;;;;5058539;28;20432;-70
2023/04/18 03:02:39;;;;;;;1.00;1.00;;;4.10;99.90;;;;;;5070643;28;20771;-70
2023/04/18 03:05:07;;;;;;;2.42;1.38;;;4.10;99.90;;;;;;5066059;28;20435;-71
2023/04/18 03:07:33;;;;;;;1.70;1.15;;;4.10;99.90;;;;;;5069105;28;20454;-71
2023/04/18 03:10:00;;;;;;;2.55;1.40;;;4.00;99.90;;;;;;5074110;28;20421;-71
2023/04/18 03:12:27;;;;;;;2.97;1.30;;;4.00;99.90;;;;;;5072876;28;20901;-71
2023/04/18 03:14:54;;;;;;;4.13;1.83;;;3.90;99.90;;;;;;5072990;28;20430;-70
2023/04/18 03:17:20;;;;;;;1.50;1.15;;;3.80;99.90;;;;;;5071136;28;20427;-70
2023/04/18 03:19:47;;;;;;;1.55;1.45;;;3.70;99.90;;;;;;5083509;28;20524;-71
2023/04/18 03:22:15;;;;;;;1.55;1.45;;;3.70;99.90;;;;;;5074699;28;20435;-70
2023/04/18 03:24:41;;;;;;;2.47;1.13;;;3.60;99.90;;;;;;5058198;28;20442;-70
2023/04/18 03:27:08;;;;;;;1.77;1.67;;;3.50;99.90;;;;;;5073355;28;20451;-71
2023/04/18 03:29:37;;;;;;;1.33;1.23;;;3.60;99.90;;;;;;5076255;28;20425;-70
2023/04/18 03:32:04;;;;;;;1.40;0.98;;;3.50;99.90;;;;;;5076437;28;20437;-70
2023/04/18 03:34:31;;;;;;;1.50;1.40;;;3.50;99.90;;;;;;5073892;28;20769;-70
2023/04/18 03:36:58;;;;;;;1.98;1.80;;;3.50;1.00;;;;;;5075916;28;20532;-70
2023/04/18 03:39:25;;;;;;;1.75;1.50;;;3.40;99.90;;;;;;5069645;28;20434;-70
2023/04/18 03:41:51;;;;;;;3.00;1.60;;;3.30;99.90;;;;;;5072866;28;20434;-70
2023/04/18 03:44:18;;;;;;;4.32;1.98;;;3.30;1.00;;;;;;5068433;28;20451;-70
2023/04/18 03:46:45;;;;;;;1.90;1.40;;;3.20;1.00;;;;;;5058405;28;20427;-70
2023/04/18 03:49:14;;;;;;;1.73;1.45;;;3.20;99.90;;;;;;5072483;28;20537;-70
2023/04/18 03:51:46;;;;;;;2.40;1.65;;;3.30;99.90;;;;;;5072452;28;20423;-70
2023/04/18 03:54:14;;;;;;;2.55;1.38;;;3.30;1.00;;;;;;5074322;28;20913;-70
2023/04/18 03:56:41;;;;;;;2.70;1.85;;;3.40;1.00;;;;;;5061567;28;20432;-70
2023/04/18 03:59:08;;;;;;;1.88;1.77;;;3.40;1.00;;;;;;5072536;28;20437;-70
2023/04/18 04:01:35;;;;;;;2.25;1.70;;;3.50;1.00;;;;;;5072389;28;20434;-70
2023/04/18 04:04:03;;;;;;;3.75;2.00;;;3.50;1.00;;;;;;5067682;28;21270;-70
2023/04/18 04:06:31;;;;;;;2.20;1.48;;;3.50;1.00;;;;;;5064519;28;20432;-70
2023/04/18 04:08:57;;;;;;;2.03;1.92;;;3.60;1.00;;;;;;5064813;28;20427;-70
2023/04/18 04:11:24;;;;;;;2.22;1.85;;;3.60;2.20;;;;;;5072082;28;20948;-70
2023/04/18 04:13:51;;;;;;;2.37;2.23;;;3.70;15.40;;;;;;5068099;28;20427;-70
2023/04/18 04:16:18;;;;;;;1.77;1.63;;;3.80;51.80;;;;;;5075928;28;20445;-71
2023/04/18 04:18:45;;;;;;;2.60;2.40;;;3.90;22.20;;;;;;5072103;28;20443;-71
2023/04/18 04:21:12;;;;;;;2.28;2.08;;;3.90;1.00;;;;;;5075799;28;20430;-71
2023/04/18 04:23:41;;;;;;;7.57;2.45;;;3.90;1.00;;;;;;5076858;28;20446;-72
2023/04/18 04:26:08;;;;;;;2.40;1.67;;;3.90;1.00;;;;;;5079178;28;20988;-71
2023/04/18 04:28:35;;;;;;;1.80;1.70;;;3.90;1.00;;;;;;5068493;28;20830;-70
2023/04/18 04:31:06;;;;;;;1.80;1.70;;;3.90;1.00;;;;;;5075812;28;20449;-70
2023/04/18 04:33:34;;;;;;;2.58;2.25;;;3.80;1.00;;;;;;5071909;28;20487;-71
2023/04/18 04:36:01;;;;;;;5.28;2.25;;;3.80;1.00;;;;;;5065116;28;20440;-71
2023/04/18 04:38:29;;;;;;;3.25;2.00;;;3.70;1.00;;;;;;5068309;28;20427;-70
2023/04/18 04:40:57;;;;;;;1.65;1.55;;;3.70;1.00;;;;;;5080031;28;20429;-70
2023/04/18 04:43:24;;;;;;;3.70;2.03;;;3.80;1.00;;;;;;5084829;28;20458;-70
2023/04/18 04:45:51;;;;;;;3.38;1.92;;;3.80;1.00;;;;;;5075233;28;20420;-71
2023/04/18 04:48:20;;;;;;;1.67;1.58;;;3.70;1.00;;;;;;5074326;28;20457;-71
2023/04/18 04:50:58;;;;;;;3.53;2.67;;;3.70;1.00;;;;;;5071698;28;20420;-71
2023/04/18 04:53:29;;;;;;;2.00;1.60;;;3.60;1.00;;;;;;5059300;28;20425;-70
2023/04/18 04:55:56;;;;;;;1.98;1.80;;;3.70;58.80;;;;;;5064130;28;20806;-71
2023/04/18 04:58:23;;;;;;;5.90;1.55;;;3.70;99.90;;;;;;5063064;28;20428;-72
2023/04/18 05:00:51;;;;;;;3.17;1.88;;;3.70;99.90;;;;;;5068052;28;20474;-70
2023/04/18 05:03:18;;;;;;;2.10;1.52;;;3.80;99.90;;;;;;5083841;28;20475;-70
2023/04/18 05:05:46;;;;;;;1.98;1.83;;;3.90;99.90;;;;;;5072868;28;20432;-69
2023/04/18 05:08:13;;;;;;;2.53;2.08;;;4.10;99.90;;;;;;5064763;28;20464;-70
2023/04/18 05:10:40;;;;;;;5.97;2.88;;;4.20;99.90;;;;;;5065705;28;20439;-70
2023/04/18 05:13:07;;;;;;;3.55;3.25;;;4.40;99.90;;;;;;5068274;28;20423;-68
2023/04/18 05:15:36;;;;;;;2.70;2.50;;;4.60;99.90;;;;;;5055747;28;21109;-69
2023/04/18 05:18:03;;;;;;;5.90;2.80;;;4.70;99.90;;;;;;5061225;28;20479;-70
2023/04/18 05:20:36;;;;;;;1.17;1.08;;;4.80;91.10;;;;;;5057120;28;20443;-70
2023/04/18 05:23:04;;;;;;;2.60;2.45;;;4.90;1.00;;;;;;5049339;28;20437;-70
2023/04/18 05:25:32;;;;;;;4.60;2.22;;;5.00;99.90;;;;;;5058464;28;21020;-69
2023/04/18 05:28:00;;;;;;;2.78;2.53;;;5.00;99.90;;;;;;5073481;28;20935;-70
2023/04/18 05:30:26;;;;;;;3.40;2.92;;;5.10;74.60;;;;;;5052758;28;20903;-70
2023/04/18 05:32:53;;;;;;;2.83;2.20;;;5.30;1.00;;;;;;5053547;28;20430;-70
2023/04/18 05:35:20;;;;;;;3.28;1.80;;;5.50;99.90;;;;;;5059574;28;20429;-70
2023/04/18 05:37:47;;;;;;;3.58;2.65;;;5.70;99.90;;;;;;5066360;28;20434;-70
2023/04/18 05:40:13;;;;;;;5.05;2.63;;;5.80;10.80;;;;;;5059599;28;20433;-70
2023/04/18 05:42:40;;;;;;;3.23;2.23;;;5.90;1.00;;;;;;5088821;27;20543;-70
2023/04/18 05:45:07;;;;;;;2.17;2.08;;;6.00;99.90;;;;;;5058279;28;20432;-71
2023/04/18 05:47:34;;;;;;;3.03;2.80;;;6.00;21.10;;;;;;5059215;28;20442;-70
2023/04/18 05:50:01;;;;;;;1.90;1.70;;;6.10;1.00;;;;;;5061878;28;20434;-70
2023/04/18 05:52:28;;;;;;;2.65;1.92;;;6.20;1.00;;;;;;5068630;28;20423;-71
2023/04/18 05:54:54;;;;;;;2.88;1.80;;;6.30;99.90;;;;;;5046734;28;20429;-70
2023/04/18 05:57:21;;;;;;;2.60;2.40;;;6.40;99.90;;;;;;5086741;28;20431;-70
2023/04/18 05:59:48;;;;;;;2.45;1.98;;;6.60;1.00;;;;;;5056293;28;20433;-70
2023/04/18 06:02:17;;;;;;;2.58;2.20;;;6.80;99.90;;;;;;5057657;28;20431;-69
2023/04/18 06:04:44;;;;;;;2.33;2.13;;;7.00;99.90;;;;;;5068664;28;21143;-70
2023/04/18 06:07:11;;;;;;;2.17;2.00;;;7.20;38.20;;;;;;5058818;28;20523;-70
2023/04/18 06:09:40;;;;;;;5.82;2.00;;;7.30;1.00;;;;;;5055763;28;20795;-70
2023/04/18 06:12:07;;;;;;;2.65;2.50;;;7.40;1.00;;;;;;5065920;28;20436;-70
2023/04/18 06:14:34;;;;;;;7.70;2.35;;;7.50;1.00;;;;;;5055157;28;20423;-70
2023/04/18 06:17:01;;;;;;;2.58;2.17;;;7.70;1.00;;;;;;5063813;28;20433;-70
2023/04/18 06:19:27;;;;;;;2.22;1.67;;;7.90;1.00;;;;;;5065209;28;20522;-70
2023/04/18 06:21:54;;;;;;;3.95;2.40;;;8.20;99.90;;;;;;5065894;28;20449;-70
2023/04/18 06:24:22;;;;;;;2.55;2.13;;;8.50;99.90;;;;;;5063615;28;20487;-70
2023/04/18 06:26:51;;;;;;;3.90;2.08;;;8.70;99.90;;;;;;5052202;28;20436;-73
2023/04/18 06:29:22;;;;;;;3.15;2.65;;;8.80;99.90;;;;;;5088924;28;21196;-70
2023/04/18 06:31:49;;;;;;;2.70;2.00;;;9.00;99.90;;;;;;5061234;28;20431;-70
2023/04/18 06:34:16;;;;;;;2.30;2.10;;;9.10;99.90;;;;;;5057560;28;20473;-70
2023/04/18 06:36:43;;;;;;;4.57;2.22;;;9.00;99.90;;;;;;5059420;28;20431;-70
2023/04/18 06:39:09;;;;;;;2.70;2.00;;;9.10;99.90;;;;;;5058577;28;20504;-70
2023/04/18 06:41:36;;;;;;;3.85;2.22;;;9.10;99.90;;;;;;5068835;28;20430;-71
2023/04/18 06:44:03;;;;;;;2.22;2.00;;;9.20;99.90;;;;;;5059993;28;20479;-70
2023/04/18 06:46:31;;;;;;;1.88;1.73;;;9.20;99.90;;;;;;5055925;28;20425;-70
2023/04/18 06:48:58;;;;;;;2.60;2.33;;;9.30;99.90;;;;;;5060782;28;20435;-70
2023/04/18 06:51:26;;;;;;;2.22;1.98;;;9.40;99.90;;;;;;5063733;28;20436;-70
2023/04/18 06:53:57;;;;;;;2.55;2.35;;;9.40;99.90;;;;;;5064814;28;20411;-70
2023/04/18 06:56:23;;;;;;;2.57;2.03;;;9.20;99.90;;;;;;5071745;28;20436;-70
2023/04/18 06:58:53;;;;;;;1.48;1.38;;;9.20;99.90;;;;;;5062411;28;20933;-70
2023/04/18 07:01:20;;;;;;;1.80;1.65;;;9.10;99.90;;;;;;5054826;28;20881;-70
2023/04/18 07:03:46;;;;;;;3.38;2.35;;;9.10;99.90;;;;;;5055599;28;20890;-69
2023/04/18 07:06:14;;;;;;;2.05;1.85;;;8.80;99.90;;;;;;5060575;28;20932;-69
2023/04/18 07:08:40;;;;;;;1.77;1.67;;;8.80;99.90;;;;;;5066470;28;20431;-70
2023/04/18 07:11:07;;;;;;;1.85;1.75;;;8.90;99.90;;;;;;5055500;28;20431;-70
2023/04/18 07:13:34;;;;;;;3.38;1.77;;;8.80;99.90;;;;;;5060676;28;20519;-70
2023/04/18 07:16:01;;;;;;;2.83;2.00;;;8.90;99.90;;;;;;5057414;28;20454;-69
2023/04/18 07:18:28;;;;;;;2.15;1.90;;;8.90;99.90;;;;;;5064201;28;20461;-70
2023/04/18 07:21:06;;;;;;;1.40;1.30;;;9.00;99.90;;;;;;5060124;28;20478;-70
2023/04/18 07:23:35;;;;;;;1.80;1.45;;;9.00;99.90;;;;;;5056690;28;20854;-70
2023/04/18 07:26:02;;;;;;;3.03;1.50;;;9.00;99.90;;;;;;5059257;28;20435;-69
2023/04/18 07:28:30;;;;;;;1.40;1.23;;;9.10;99.90;;;;;;5061146;28;20994;-71
2023/04/18 07:30:57;;;;;;;5.90;1.95;;;9.10;99.90;;;;;;5058226;28;20423;-71
2023/04/18 07:33:30;;;;;;;2.27;2.07;;;9.10;99.90;;;;;;5066751;28;20455;-69
2023/04/18 07:35:57;;;;;;;1.52;1.40;;;9.20;99.90;;;;;;5061537;28;20441;-69
2023/04/18 07:38:24;;;;;;;1.58;1.42;;;9.10;99.90;;;;;;5063893;28;20898;-69
2023/04/18 07:40:58;;;;;;;2.58;1.88;;;9.10;99.90;;;;;;5061243;28;20434;-69
2023/04/18 07:43:25;;;;;;;3.20;2.13;;;9.20;99.90;;;;;;5060013;28;20940;-69
2023/04/18 07:45:52;;;;;;;2.35;1.80;;;9.30;99.90;;;;;;5067968;28;20915;-69
2023/04/18 07:48:25;;;;;;;2.15;1.80;;;9.60;99.90;;;;;;5058369;28;20473;-69
2023/04/18 07:50:53;;;;;;;2.97;1.60;;;9.80;99.90;;;;;;5064809;28;20427;-69
2023/04/18 07:53:19;;;;;;;3.40;2.03;;;9.80;99.90;;;;;;5067478;28;20509;-69
2023/04/18 07:55:46;;;;;;;1.75;1.65;;;10.00;99.90;;;;;;5059981;28;20539;-69
2023/04/18 07:58:16;;;;;;;2.42;2.08;;;10.00;99.90;;;;;;5062164;28;20428;-69
2023/04/18 08:00:43;;;;;;;2.60;1.92;;;9.80;99.90;;;;;;5062457;28;20949;-69
2023/04/18 08:03:11;;;;;;;3.10;2.05;;;9.80;99.90;;;;;;5071457;28;20435;-69
2023/04/18 08:05:39;;;;;;;4.35;1.45;;;9.80;99.90;;;;;;5065677;28;20442;-70
2023/04/18 08:08:08;;;;;;;3.53;1.90;;;9.80;99.90;;;;;;5066889;28;20427;-69
2023/04/18 08:10:36;;;;;;;2.20;2.00;;;9.70;99.90;;;;;;5050600;28;20436;-70
2023/04/18 08:13:03;;;;;;;3.90;2.05;;;9.90;99.90;;;;;;5052378;28;20918;-69
2023/04/18 08:15:31;;;;;;;2.80;2.35;;;9.90;99.90;;;;;;5063718;28;20423;-69
2023/04/18 08:17:59;;;;;;;2.40;1.90;;;10.10;99.90;;;;;;5056815;28;20775;-69
2023/04/18 08:20:26;;;;;;;2.55;2.10;;;10.30;99.90;;;;;;5071966;28;20435;-69
2023/04/18 08:22:56;;;;;;;2.13;1.63;;;10.20;99.90;;;;;;5066578;28;20463;-69
2023/04/18 08:25:35;;;;;;;2.22;2.03;;;10.30;99.90;;;;;;5065659;28;20490;-69
2023/04/18 08:28:02;;;;;;;3.17;1.83;;;10.30;99.90;;;;;;5069878;28;20429;-69
2023/04/18 08:30:30;;;;;;;3.10;1.80;;;10.20;99.90;;;;;;5070517;28;20519;-70
2023/04/18 08:32:57;;;;;;;1.90;1.70;;;10.40;99.90;;;;;;5071840;28;20470;-69
2023/04/18 08:35:25;;;;;;;2.00;1.75;;;10.30;99.90;;;;;;5062747;28;20898;-69
2023/04/18 08:37:52;;;;;;;2.67;2.08;;;10.50;99.90;;;;;;5068132;28;20571;-70
2023/04/18 08:40:19;;;;;;;2.35;1.88;;;10.80;99.90;;;;;;5066891;28;20439;-69
2023/04/18 08:42:48;;;;;;;3.65;1.75;;;10.80;99.90;;;;;;5063688;28;20526;-69
2023/04/18 08:45:16;;;;;;;2.97;1.90;;;10.60;99.90;;;;;;5062641;28;20463;-69
2023/04/18 08:47:43;;;;;;;2.53;2.08;;;10.70;99.90;;;;;;5049053;28;20820;-70
2023/04/18 08:50:11;;;;;;;2.67;1.90;;;11.00;99.90;;;;;;5062820;28;20794;-69
2023/04/18 08:52:48;;;;;;;4.03;2.63;;;10.90;99.90;;;;;;5076399;28;21021;-70
2023/04/18 08:55:18;;;;;;;4.97;2.42;;;11.20;99.90;;;;;;5087324;28;20513;-69
2023/04/18 08:57:45;;;;;;;7.55;2.25;;;11.70;99.90;;;;;;5066942;28;20419;-68
2023/04/18 09:00:16;;;;;;;1.52;1.42;;;11.90;99.90;;;;;;5057335;28;20433;-70
2023/04/18 09:02:43;;;;;;;2.70;2.25;;;11.90;99.90;;;;;;5046717;28;20436;-69
2023/04/18 09:05:20;;;;;;;3.43;2.10;;;12.10;99.90;;;;;;5053776;28;20620;-71
2023/04/18 09:07:48;;;;;;;2.58;1.90;;;12.30;99.90;;;;;;5057595;28;20461;-70
2023/04/18 09:10:33;;;;;;;2.95;2.05;;;12.50;99.90;;;;;;5059622;28;20433;-70
2023/04/18 09:13:02;;;;;;;1.90;1.70;;;12.70;99.90;;;;;;5054162;28;20518;-71
2023/04/18 09:15:29;;;;;;;2.20;2.00;;;12.80;99.90;;;;;;5066501;28;20424;-70
2023/04/18 09:17:58;;;;;;;2.17;1.67;;;12.70;99.90;;;;;;5059899;28;20446;-70
2023/04/18 09:20:34;;;;;;;2.47;1.63;;;12.90;99.90;;;;;;5066295;28;20445;-70
2023/04/18 09:23:25;;;;;;;2.38;1.70;;;13.00;99.90;;;;;;5070976;28;20466;-71
2023/04/18 09:25:52;;;;;;;1.65;1.55;;;13.50;99.90;;;;;;5060630;28;20463;-69
2023/04/18 09:28:30;;;;;;;1.85;1.75;;;13.90;99.90;;;;;;5059373;28;20907;-70
2023/04/18 09:31:10;;;;;;;2.30;2.10;;;13.90;99.90;;;;;;5060694;28;20819;-70
2023/04/18 09:33:41;;;;;;;3.38;1.80;;;13.40;99.90;;;;;;5050952;28;20839;-71
2023/04/18 09:36:23;;;;;;;3.88;2.47;;;13.30;99.90;;;;;;5057943;28;20768;-69
2023/04/18 09:38:53;;;;;;;1.80;1.67;;;13.50;99.90;;;;;;5063703;28;20434;-69
2023/04/18 09:41:22;;;;;;;1.83;1.73;;;13.60;99.90;;;;;;5054756;28;20435;-69
2023/04/18 09:44:06;;;;;;;2.42;1.92;;;13.50;99.90;;;;;;5063847;28;20457;-70
2023/04/18 09:46:33;;;;;;;1.88;1.77;;;13.40;99.90;;;;;;5059337;28;20441;-69
2023/04/18 09:49:01;;;;;;;2.78;1.65;;;13.50;99.90;;;;;;5060581;28;20539;-70
2023/04/18 09:51:30;;;;;;;1.70;1.55;;;14.10;99.90;;;;;;5059650;28;20483;-71
2023/04/18 09:53:57;;;;;;;2.30;1.55;;;14.90;99.90;;;;;;5065076;28;20531;-69
2023/04/18 09:56:27;;;;;;;2.22;1.65;;;15.20;99.90;;;;;;5057385;28;20431;-70
2023/04/18 09:59:07;;;;;;;2.78;1.98;;;16.00;99.90;;;;;;5050784;28;20493;-71
2023/04/18 10:01:35;;;;;;;1.42;1.30;;;16.60;99.90;;;;;;5050822;28;20437;-70
2023/04/18 10:04:05;;;;;;;1.30;1.30;;;16.80;99.90;;;;;;5054531;28;20938;-70
2023/04/18 10:06:33;;;;;;;1.58;1.48;;;16.70;99.90;;;;;;5062363;28;20427;-70
2023/04/18 10:09:03;;;;;;;4.93;2.10;;;15.50;99.90;;;;;;5056858;28;20436;-69
2023/04/18 10:11:30;;;;;;;1.60;1.50;;;15.20;99.90;;;;;;5051905;28;20545;-69
2023/04/18 10:14:01;;;;;;;3.33;1.40;;;15.50;99.90;;;;;;5054868;28;20528;-69
2023/04/18 10:16:28;;;;;;;1.52;1.42;;;15.40;99.90;;;;;;5057638;28;20428;-69
2023/04/18 10:18:55;;;;;;;1.80;1.60;;;15.40;99.90;;;;;;5058763;28;20441;-69
2023/04/18 10:21:22;;;;;;;1.70;1.30;;;15.20;99.90;;;;;;5056543;28;20432;-69
2023/04/18 10:23:49;;;;;;;2.55;2.10;;;15.20;99.90;;;;;;5062403;28;20490;-69
2023/04/18 10:26:16;;;;;;;2.20;1.90;;;15.40;99.90;;;;;;5052236;28;20431;-69
2023/04/18 10:28:57;;;;;;;2.03;1.73;;;14.80;99.90;;;;;;5057605;28;20430;-69
2023/04/18 10:31:25;;;;;;;1.60;1.20;;;15.00;99.90;;;;;;5055501;28;20431;-69
2023/04/18 10:33:56;;;;;;;1.67;1.58;;;15.20;99.90;;;;;;5065539;28;20427;-69
2023/04/18 10:36:27;;;;;;;1.80;1.40;;;14.80;99.90;;;;;;5061708;28;20428;-70
2023/04/18 10:39:18;;;;;;;1.73;1.63;;;14.50;99.90;;;;;;5062962;28;20481;-70
2023/04/18 10:41:49;;;;;;;2.53;1.52;;;14.70;99.90;;;;;;5060575;28;20458;-69
2023/04/18 10:44:23;;;;;;;2.90;2.00;;;14.70;99.90;;;;;;5048762;28;20440;-69
2023/04/18 10:46:51;;;;;;;1.83;1.73;;;14.80;99.90;;;;;;5066115;28;20527;-70
2023/04/18 10:49:28;;;;;;;2.45;1.55;;;15.10;99.90;;;;;;5056972;28;20518;-69
2023/04/18 10:51:59;;;;;;;1.42;1.33;;;14.70;99.90;;;;;;5060246;28;20521;-69
2023/04/18 10:54:46;;;;;;;2.20;1.63;;;15.10;99.90;;;;;;5062149;28;20431;-70
2023/04/18 10:57:14;;;;;;;1.75;1.35;;;15.50;99.90;;;;;;5054113;28;20421;-70
2023/04/18 10:59:42;;;;;;;1.50;1.40;;;15.90;99.90;;;;;;5063953;28;20922;-69
2023/04/18 11:02:17;;;;;;;1.52;1.42;;;16.00;99.90;;;;;;5054591;28;20445;-70
2023/04/18 11:04:51;;;;;;;1.63;1.52;;;15.80;99.90;;;;;;5058636;28;20435;-69
2023/04/18 11:07:18;;;;;;;1.48;1.38;;;15.80;99.90;;;;;;5054217;28;20429;-70
2023/04/18 11:09:55;;;;;;;1.58;1.40;;;16.50;99.90;;;;;;5061179;28;20448;-70
2023/04/18 11:12:32;;;;;;;1.60;1.50;;;16.80;99.90;;;;;;5055844;28;20425;-69
2023/04/18 11:15:07;;;;;;;1.70;1.42;;;17.30;99.90;;;;;;5044760;28;20450;-70
2023/04/18 11:17:34;;;;;;;1.80;1.17;;;17.40;99.90;;;;;;5061222;28;20902;-69
2023/04/18 11:20:13;;;;;;;1.95;1.75;;;17.10;99.90;;;;;;5062596;28;21121;-70
2023/04/18 11:22:50;;;;;;;1.02;1.02;;;17.30;99.90;;;;;;5059312;28;20453;-71
2023/04/18 11:25:36;;;;;;;1.45;1.30;;;18.10;99.90;;;;;;5064518;28;20511;-69
2023/04/18 11:28:03;;;;;;;2.30;1.40;;;19.10;99.90;;;;;;5057042;28;20489;-70
2023/04/18 11:30:37;;;;;;;1.50;1.40;;;19.70;99.90;;;;;;5068059;28;20471;-70
2023/04/18 11:33:08;;;;;;;1.60;1.38;;;20.00;99.90;;;;;;5046657;28;20694;-70
2023/04/18 11:35:43;;;;;;;1.90;1.30;;;20.60;99.90;;;;;;5056668;28;20853;-72
2023/04/18 11:38:12;;;;;;;1.45;1.05;;;20.80;99.90;;;;;;5063096;28;20431;-70
2023/04/18 11:40:47;;;;;;;1.27;1.17;;;20.80;99.90;;;;;;5062009;28;20442;-70
2023/04/18 11:43:24;;;;;;;1.30;1.20;;;20.80;99.90;;;;;;5058609;28;20439;-70
2023/04/18 11:45:58;;;;;;;1.45;1.20;;;20.70;99.90;;;;;;5067807;28;20429;-70
2023/04/18 11:48:35;;;;;;;1.15;1.05;;;20.60;99.90;;;;;;5071328;28;20431;-70
2023/04/18 11:51:02;;;;;;;1.80;1.27;;;20.60;99.90;;;;;;5057834;28;20982;-71
2023/04/18 11:53:38;;;;;;;1.10;1.10;;;20.30;99.90;;;;;;5051277;28;20457;-70
2023/04/18 11:56:05;;;;;;;1.20;1.10;;;20.00;99.90;;;;;;5060653;28;20450;-69
2023/04/18 11:58:33;;;;;;;0.95;0.95;;;19.20;99.90;;;;;;5059763;28;20448;-69
2023/04/18 12:01:21;;;;;;;1.65;0.88;;;18.10;99.90;;;;;;5058770;28;20515;-69
2023/04/18 12:04:05;;;;;;;0.93;0.93;;;18.30;99.90;;;;;;5055426;28;20520;-69
2023/04/18 12:06:45;;;;;;;1.20;1.10;;;18.40;99.90;;;;;;5061669;28;20427;-70
2023/04/18 12:09:16;;;;;;;2.70;1.03;;;17.40;99.90;;;;;;5088970;28;20930;-66
2023/04/18 12:11:43;;;;;;;0.95;0.95;;;16.80;99.90;;;;;;5062055;28;20490;-71
2023/04/18 12:14:20;;;;;;;1.73;1.40;;;16.40;99.90;;;;;;5067133;28;21023;-70
2023/04/18 12:16:51;;;;;;;0.90;0.70;;;16.50;99.90;;;;;;5061070;28;20423;-70
2023/04/18 12:19:19;;;;;;;4.38;1.00;;;16.20;99.90;;;;;;5066862;28;20465;-70
2023/04/18 12:21:59;;;;;;;2.80;1.15;;;16.20;99.90;;;;;;5067542;28;20427;-70
2023/04/18 12:24:30;;;;;;;1.23;1.13;;;16.40;99.90;;;;;;5072328;28;20443;-72
2023/04/18 12:26:58;;;;;;;1.08;1.08;;;17.20;99.90;;;;;;5052278;28;20459;-70
2023/04/18 12:29:26;;;;;;;1.07;0.90;;;17.60;99.90;;;;;;5057770;28;21142;-70
2023/04/18 12:31:52;;;;;;;1.02;1.00;;;17.70;99.90;;;;;;5063183;28;20431;-70
2023/04/18 12:34:19;;;;;;;3.88;1.13;;;17.20;99.90;;;;;;5057603;28;20433;-70
2023/04/18 12:36:46;;;;;;;1.30;1.20;;;16.90;99.90;;;;;;5061552;28;20425;-70
2023/04/18 12:39:13;;;;;;;1.42;1.33;;;16.50;99.90;;;;;;5064091;28;20450;-70
2023/04/18 12:41:39;;;;;;;1.50;1.27;;;16.50;99.90;;;;;;5059751;28;20483;-70
2023/04/18 12:44:06;;;;;;;1.45;1.00;;;16.30;99.90;;;;;;5088105;28;21007;-69
2023/04/18 12:46:33;;;;;;;0.80;0.80;;;16.00;99.90;;;;;;5057492;28;20528;-71
2023/04/18 12:49:00;;;;;;;1.50;0.77;;;16.00;99.90;;;;;;5057577;28;20902;-70
2023/04/18 12:51:27;;;;;;;0.55;0.55;;;16.00;99.90;;;;;;5059024;28;20428;-70
2023/04/18 12:53:54;;;;;;;0.95;0.95;;;16.00;99.90;;;;;;5057063;28;20435;-70
2023/04/18 12:56:21;;;;;;;0.77;0.77;;;15.90;99.90;;;;;;5061066;28;20438;-70
2023/04/18 12:58:48;;;;;;;0.70;0.70;;;15.70;99.90;;;;;;5062215;28;20906;-70
2023/04/18 13:01:15;;;;;;;1.63;0.70;;;15.70;99.90;;;;;;5062009;28;20432;-69
2023/04/18 13:03:42;;;;;;;0.80;0.80;;;15.80;99.90;;;;;;5068503;28;20848;-70